createdAt,value
2024-03-26T00:00:27.395Z,953.96
2024-03-26T00:01:27.399Z,953.96
2024-03-26T00:02:27.354Z,953.87
2024-03-26T00:03:27.334Z,953.86
2024-03-26T00:04:27.331Z,953.93
2024-03-26T00:05:27.315Z,953.84
2024-03-26T00:06:27.340Z,953.81
2024-03-26T00:07:27.294Z,953.88
2024-03-26T00:08:27.267Z,953.80
2024-03-26T00:09:27.253Z,953.76
2024-03-26T00:10:27.230Z,953.81
2024-03-26T00:11:27.268Z,953.73
2024-03-26T00:12:27.208Z,953.77
2024-03-26T00:13:27.177Z,953.75
2024-03-26T00:14:27.155Z,953.69
2024-03-26T00:15:27.208Z,953.71
2024-03-26T00:16:27.131Z,953.71
2024-03-26T00:17:27.152Z,953.70
2024-03-26T00:18:27.120Z,953.69
2024-03-26T00:19:27.087Z,953.68
2024-03-26T00:20:27.087Z,953.69
2024-03-26T00:21:27.058Z,953.67
2024-03-26T00:22:27.082Z,953.66
2024-03-26T00:23:27.034Z,953.63
2024-03-26T00:24:26.995Z,953.62
2024-03-26T00:25:26.982Z,953.60
2024-03-26T00:26:26.956Z,953.60
2024-03-26T00:27:27.002Z,953.63
2024-03-26T00:28:26.947Z,953.61
2024-03-26T00:29:26.946Z,953.64
2024-03-26T00:30:26.904Z,953.64
2024-03-26T00:31:26.881Z,953.64
2024-03-26T00:32:26.881Z,953.61
2024-03-26T00:33:26.862Z,953.63
2024-03-26T00:34:26.837Z,953.63
2024-03-26T00:35:26.826Z,953.58
2024-03-26T00:36:26.788Z,953.55
2024-03-26T00:37:26.788Z,953.60
2024-03-26T00:38:26.769Z,953.58
2024-03-26T00:39:26.765Z,953.58
2024-03-26T00:40:26.748Z,953.48
2024-03-26T00:41:26.717Z,953.54
2024-03-26T00:42:26.681Z,953.42
2024-03-26T00:43:26.683Z,953.41
2024-03-26T00:44:26.650Z,953.51
2024-03-26T00:45:26.649Z,953.43
2024-03-26T00:46:26.625Z,953.45
2024-03-26T00:47:26.615Z,953.43
2024-03-26T00:48:26.627Z,953.40
2024-03-26T00:49:26.582Z,953.43
2024-03-26T00:50:26.559Z,953.39
2024-03-26T00:51:26.542Z,953.35
2024-03-26T00:52:26.528Z,953.39
2024-03-26T00:53:26.515Z,953.41
2024-03-26T00:54:27.636Z,953.35
2024-03-26T00:55:27.472Z,953.35
2024-03-26T00:56:26.500Z,953.35
2024-03-26T00:57:26.438Z,953.39
2024-03-26T00:58:26.439Z,953.35
2024-03-26T00:59:26.415Z,953.41
2024-03-26T01:00:26.380Z,953.38
2024-03-26T01:01:26.445Z,953.34
2024-03-26T01:02:26.432Z,953.46
2024-03-26T01:03:26.429Z,953.28
2024-03-26T01:04:26.397Z,953.32
2024-03-26T01:05:26.328Z,953.36
2024-03-26T01:06:26.308Z,953.31
2024-03-26T01:07:26.277Z,953.38
2024-03-26T01:08:26.271Z,953.32
2024-03-26T01:09:26.283Z,953.29
2024-03-26T01:10:26.224Z,953.30
2024-03-26T01:11:26.215Z,953.26
2024-03-26T01:12:26.193Z,953.24
2024-03-26T01:13:26.176Z,953.24
2024-03-26T01:14:26.164Z,953.22
2024-03-26T01:15:26.162Z,953.27
2024-03-26T01:16:26.120Z,953.24
2024-03-26T01:17:26.120Z,953.23
2024-03-26T01:18:26.109Z,953.15
2024-03-26T01:19:26.082Z,953.19
2024-03-26T01:20:26.074Z,953.19
2024-03-26T01:21:26.042Z,953.19
2024-03-26T01:22:26.033Z,953.11
2024-03-26T01:23:26.029Z,953.17
2024-03-26T01:24:26.009Z,953.15
2024-03-26T01:25:26.021Z,953.16
2024-03-26T01:26:25.976Z,953.11
2024-03-26T01:27:25.944Z,953.21
2024-03-26T01:28:25.927Z,953.08
2024-03-26T01:29:25.914Z,953.13
2024-03-26T01:30:25.948Z,953.10
2024-03-26T01:31:25.913Z,953.11
2024-03-26T01:32:25.884Z,953.05
2024-03-26T01:33:25.855Z,953.09
2024-03-26T01:34:25.849Z,953.07
2024-03-26T01:35:25.820Z,953.10
2024-03-26T01:36:25.802Z,953.07
2024-03-26T01:37:25.794Z,953.10
2024-03-26T01:38:25.831Z,952.99
2024-03-26T01:39:25.772Z,953.03
2024-03-26T01:40:25.719Z,953.01
2024-03-26T01:41:25.831Z,953.02
2024-03-26T01:42:25.698Z,953.04
2024-03-26T01:43:25.667Z,953.01
2024-03-26T01:44:25.653Z,953.03
2024-03-26T01:45:25.630Z,953.04
2024-03-26T01:46:25.684Z,952.97
2024-03-26T01:47:25.644Z,952.93
2024-03-26T01:48:25.585Z,952.94
2024-03-26T01:49:25.582Z,953.00
2024-03-26T01:50:25.538Z,952.93
2024-03-26T01:51:25.526Z,952.95
2024-03-26T01:52:25.525Z,953.00
2024-03-26T01:53:25.506Z,953.00
2024-03-26T01:54:25.478Z,952.99
2024-03-26T01:55:25.486Z,952.94
2024-03-26T01:56:25.457Z,952.97
2024-03-26T01:57:25.458Z,952.94
2024-03-26T01:58:25.421Z,952.93
2024-03-26T01:59:25.392Z,952.92
2024-03-26T02:00:25.382Z,952.92
2024-03-26T02:01:25.364Z,952.92
2024-03-26T02:02:25.383Z,952.92
2024-03-26T02:03:25.344Z,952.88
2024-03-26T02:04:25.310Z,952.95
2024-03-26T02:05:25.315Z,952.85
2024-03-26T02:06:25.291Z,952.88
2024-03-26T02:07:25.257Z,952.85
2024-03-26T02:08:25.255Z,952.92
2024-03-26T02:09:25.234Z,952.87
2024-03-26T02:10:25.206Z,952.83
2024-03-26T02:11:25.185Z,952.86
2024-03-26T02:12:25.188Z,952.85
2024-03-26T02:13:25.227Z,952.81
2024-03-26T02:14:25.131Z,952.78
2024-03-26T02:15:25.123Z,952.79
2024-03-26T02:16:25.103Z,952.79
2024-03-26T02:17:25.106Z,952.74
2024-03-26T02:18:25.126Z,952.79
2024-03-26T02:19:25.056Z,952.76
2024-03-26T02:20:25.040Z,952.71
2024-03-26T02:21:25.020Z,952.69
2024-03-26T02:22:25.015Z,952.70
2024-03-26T02:23:25.026Z,952.70
2024-03-26T02:24:24.966Z,952.68
2024-03-26T02:25:24.963Z,952.65
2024-03-26T02:26:24.944Z,952.59
2024-03-26T02:27:24.913Z,952.69
2024-03-26T02:28:24.901Z,952.60
2024-03-26T02:29:24.896Z,952.61
2024-03-26T02:30:24.866Z,952.55
2024-03-26T02:31:24.860Z,952.53
2024-03-26T02:32:24.856Z,952.56
2024-03-26T02:33:24.815Z,952.51
2024-03-26T02:34:24.820Z,952.55
2024-03-26T02:35:24.794Z,952.54
2024-03-26T02:36:24.766Z,952.44
2024-03-26T02:37:24.757Z,952.42
2024-03-26T02:38:24.730Z,952.45
2024-03-26T02:39:24.759Z,952.45
2024-03-26T02:40:24.711Z,952.38
2024-03-26T02:41:24.691Z,952.37
2024-03-26T02:42:24.667Z,952.29
2024-03-26T02:43:24.660Z,952.27
2024-03-26T02:44:24.662Z,952.30
2024-03-26T02:45:24.619Z,952.28
2024-03-26T02:46:24.600Z,952.29
2024-03-26T02:47:24.605Z,952.21
2024-03-26T02:48:24.558Z,952.24
2024-03-26T02:49:24.545Z,952.26
2024-03-26T02:50:24.545Z,952.27
2024-03-26T02:51:24.506Z,952.19
2024-03-26T02:52:24.505Z,952.21
2024-03-26T02:53:24.489Z,952.21
2024-03-26T02:54:24.472Z,952.13
2024-03-26T02:55:24.472Z,952.09
2024-03-26T02:56:24.433Z,952.09
2024-03-26T02:57:24.414Z,952.10
2024-03-26T02:58:24.412Z,952.04
2024-03-26T02:59:24.395Z,951.98
2024-03-26T03:00:24.406Z,952.11
2024-03-26T03:01:24.360Z,951.94
2024-03-26T03:02:24.338Z,951.93
2024-03-26T03:03:24.303Z,952.07
2024-03-26T03:04:25.326Z,951.95
2024-03-26T03:05:24.580Z,951.91
2024-03-26T03:06:24.258Z,951.90
2024-03-26T03:07:24.249Z,951.96
2024-03-26T03:08:24.242Z,951.86
2024-03-26T03:09:24.222Z,951.98
2024-03-26T03:10:24.318Z,951.88
2024-03-26T03:11:24.174Z,951.85
2024-03-26T03:12:24.180Z,951.84
2024-03-26T03:13:24.148Z,951.83
2024-03-26T03:14:24.125Z,951.87
2024-03-26T03:15:24.108Z,951.82
2024-03-26T03:16:24.104Z,951.74
2024-03-26T03:17:24.075Z,951.73
2024-03-26T03:18:24.072Z,951.75
2024-03-26T03:19:24.052Z,951.73
2024-03-26T03:20:24.024Z,951.72
2024-03-26T03:21:24.051Z,951.72
2024-03-26T03:22:23.994Z,951.69
2024-03-26T03:23:23.988Z,951.71
2024-03-26T03:24:23.963Z,951.76
2024-03-26T03:25:23.949Z,951.83
2024-03-26T03:26:25.556Z,951.65
2024-03-26T03:27:23.914Z,951.70
2024-03-26T03:28:23.902Z,951.66
2024-03-26T03:29:23.877Z,951.61
2024-03-26T03:30:23.859Z,951.69
2024-03-26T03:31:23.841Z,951.68
2024-03-26T03:32:23.851Z,951.61
2024-03-26T03:33:23.811Z,951.60
2024-03-26T03:34:23.780Z,951.58
2024-03-26T03:35:23.778Z,951.59
2024-03-26T03:36:23.779Z,951.59
2024-03-26T03:37:23.771Z,951.51
2024-03-26T03:38:23.729Z,951.49
2024-03-26T03:39:23.712Z,951.50
2024-03-26T03:40:23.696Z,951.52
2024-03-26T03:41:23.685Z,951.46
2024-03-26T03:42:23.711Z,951.48
2024-03-26T03:43:23.634Z,951.41
2024-03-26T03:44:23.627Z,951.47
2024-03-26T03:45:23.638Z,951.49
2024-03-26T03:46:23.598Z,951.38
2024-03-26T03:47:23.651Z,951.40
2024-03-26T03:48:23.557Z,951.29
2024-03-26T03:49:23.535Z,951.38
2024-03-26T03:50:23.530Z,951.31
2024-03-26T03:51:23.511Z,951.42
2024-03-26T03:52:23.515Z,951.39
2024-03-26T03:53:23.495Z,951.45
2024-03-26T03:54:23.462Z,951.33
2024-03-26T03:55:23.465Z,951.35
2024-03-26T03:56:23.428Z,951.31
2024-03-26T03:57:23.406Z,951.38
2024-03-26T03:58:23.409Z,951.23
2024-03-26T03:59:23.378Z,951.26
2024-03-26T04:00:23.360Z,951.24
2024-03-26T04:01:23.332Z,951.23
2024-03-26T04:02:23.320Z,951.29
2024-03-26T04:03:23.344Z,951.22
2024-03-26T04:04:23.281Z,951.29
2024-03-26T04:05:23.271Z,951.36
2024-03-26T04:06:23.250Z,951.22
2024-03-26T04:07:23.233Z,951.28
2024-03-26T04:08:23.278Z,951.18
2024-03-26T04:09:23.219Z,951.23
2024-03-26T04:10:23.194Z,951.20
2024-03-26T04:11:23.175Z,951.17
2024-03-26T04:12:23.148Z,951.16
2024-03-26T04:13:23.225Z,951.23
2024-03-26T04:14:26.966Z,951.18
2024-03-26T04:15:23.118Z,951.22
2024-03-26T04:16:23.087Z,951.19
2024-03-26T04:17:23.072Z,951.15
2024-03-26T04:18:23.058Z,951.12
2024-03-26T04:19:23.083Z,951.12
2024-03-26T04:20:23.021Z,951.13
2024-03-26T04:21:23.013Z,951.11
2024-03-26T04:22:22.994Z,951.02
2024-03-26T04:23:22.979Z,951.02
2024-03-26T04:24:22.999Z,951.02
2024-03-26T04:25:22.941Z,951.03
2024-03-26T04:26:22.916Z,950.98
2024-03-26T04:27:22.909Z,950.93
2024-03-26T04:28:22.901Z,950.99
2024-03-26T04:29:22.874Z,950.96
2024-03-26T04:30:22.904Z,951.00
2024-03-26T04:31:22.840Z,950.81
2024-03-26T04:32:22.831Z,950.91
2024-03-26T04:33:22.803Z,950.86
2024-03-26T04:34:22.789Z,950.85
2024-03-26T04:35:22.794Z,950.84
2024-03-26T04:36:22.761Z,950.82
2024-03-26T04:37:25.744Z,950.82
2024-03-26T04:38:22.727Z,950.80
2024-03-26T04:39:22.695Z,950.88
2024-03-26T04:40:22.737Z,950.86
2024-03-26T04:41:22.678Z,950.84
2024-03-26T04:42:22.653Z,950.84
2024-03-26T04:43:22.631Z,950.80
2024-03-26T04:44:22.621Z,950.84
2024-03-26T04:45:22.698Z,950.78
2024-03-26T04:46:22.594Z,950.87
2024-03-26T04:47:22.581Z,950.83
2024-03-26T04:48:22.550Z,950.83
2024-03-26T04:49:22.526Z,950.84
2024-03-26T04:50:22.521Z,950.78
2024-03-26T04:51:22.628Z,950.82
2024-03-26T04:52:22.477Z,950.75
2024-03-26T04:53:22.455Z,950.72
2024-03-26T04:54:22.451Z,950.80
2024-03-26T04:55:23.430Z,950.77
2024-03-26T04:56:22.421Z,950.71
2024-03-26T04:57:22.442Z,950.78
2024-03-26T04:58:22.398Z,950.75
2024-03-26T04:59:22.361Z,950.79
2024-03-26T05:00:22.343Z,950.76
2024-03-26T05:01:22.343Z,950.82
2024-03-26T05:02:22.304Z,950.74
2024-03-26T05:03:22.288Z,950.79
2024-03-26T05:04:22.303Z,950.71
2024-03-26T05:05:22.272Z,950.70
2024-03-26T05:06:22.288Z,950.69
2024-03-26T05:07:22.236Z,950.65
2024-03-26T05:08:22.208Z,950.70
2024-03-26T05:09:22.191Z,950.66
2024-03-26T05:10:22.181Z,950.70
2024-03-26T05:11:22.189Z,950.64
2024-03-26T05:12:22.176Z,950.70
2024-03-26T05:13:22.128Z,950.71
2024-03-26T05:14:22.108Z,950.71
2024-03-26T05:15:22.093Z,950.65
2024-03-26T05:16:22.086Z,950.71
2024-03-26T05:17:22.067Z,950.64
2024-03-26T05:18:22.061Z,950.63
2024-03-26T05:19:22.043Z,950.64
2024-03-26T05:20:22.031Z,950.62
2024-03-26T05:21:21.990Z,950.61
2024-03-26T05:22:22.000Z,950.60
2024-03-26T05:23:21.952Z,950.66
2024-03-26T05:24:21.944Z,950.56
2024-03-26T05:25:21.950Z,950.50
2024-03-26T05:26:21.915Z,950.61
2024-03-26T05:27:21.940Z,950.75
2024-03-26T05:28:21.880Z,950.65
2024-03-26T05:29:21.854Z,950.55
2024-03-26T05:30:21.859Z,950.61
2024-03-26T05:31:21.836Z,950.55
2024-03-26T05:32:21.818Z,950.57
2024-03-26T05:33:21.833Z,950.55
2024-03-26T05:34:25.145Z,950.57
2024-03-26T05:35:22.770Z,950.49
2024-03-26T05:36:21.762Z,950.46
2024-03-26T05:37:21.727Z,950.44
2024-03-26T05:38:21.754Z,950.49
2024-03-26T05:39:21.691Z,950.48
2024-03-26T05:40:21.694Z,950.51
2024-03-26T05:41:21.664Z,950.49
2024-03-26T05:42:21.646Z,950.49
2024-03-26T05:43:21.640Z,950.54
2024-03-26T05:44:55.067Z,950.51
2024-03-26T05:45:21.596Z,950.41
2024-03-26T05:46:21.583Z,950.46
2024-03-26T05:47:21.567Z,950.39
2024-03-26T05:48:21.569Z,950.37
2024-03-26T05:49:21.550Z,950.37
2024-03-26T05:50:21.528Z,950.35
2024-03-26T05:51:21.493Z,950.40
2024-03-26T05:52:21.500Z,950.32
2024-03-26T05:53:21.499Z,950.25
2024-03-26T05:54:21.495Z,950.26
2024-03-26T05:55:21.440Z,950.34
2024-03-26T05:56:21.432Z,950.35
2024-03-26T05:57:21.439Z,950.27
2024-03-26T05:58:21.410Z,950.26
2024-03-26T05:59:21.394Z,950.25
2024-03-26T06:00:21.392Z,950.24
2024-03-26T06:01:21.369Z,950.29
2024-03-26T06:02:21.327Z,950.25
2024-03-26T06:03:21.306Z,950.15
2024-03-26T06:04:21.295Z,950.08
2024-03-26T06:05:21.301Z,950.10
2024-03-26T06:06:21.254Z,950.17
2024-03-26T06:07:21.246Z,950.05
2024-03-26T06:08:21.275Z,950.11
2024-03-26T06:09:21.225Z,950.08
2024-03-26T06:10:21.205Z,950.02
2024-03-26T06:11:21.194Z,950.00
2024-03-26T06:12:21.167Z,950.00
2024-03-26T06:13:21.187Z,950.04
2024-03-26T06:14:21.130Z,949.95
2024-03-26T06:15:21.170Z,950.04
2024-03-26T06:16:21.097Z,949.97
2024-03-26T06:17:21.074Z,949.98
2024-03-26T06:18:23.717Z,950.02
2024-03-26T06:19:21.031Z,950.00
2024-03-26T06:20:21.059Z,949.97
2024-03-26T06:21:21.017Z,949.97
2024-03-26T06:22:21.012Z,949.92
2024-03-26T06:23:21.001Z,950.03
2024-03-26T06:24:20.987Z,949.87
2024-03-26T06:25:20.947Z,949.88
2024-03-26T06:26:20.956Z,949.89
2024-03-26T06:27:20.924Z,949.94
2024-03-26T06:28:20.891Z,949.86
2024-03-26T06:29:20.883Z,949.91
2024-03-26T06:30:20.863Z,949.77
2024-03-26T06:31:20.872Z,949.84
2024-03-26T06:32:20.828Z,949.81
2024-03-26T06:33:22.909Z,949.85
2024-03-26T06:34:20.803Z,949.80
2024-03-26T06:35:20.769Z,949.82
2024-03-26T06:36:20.775Z,949.79
2024-03-26T06:37:20.757Z,949.77
2024-03-26T06:38:20.732Z,949.78
2024-03-26T06:39:20.724Z,949.72
2024-03-26T06:40:20.705Z,949.76
2024-03-26T06:41:20.776Z,949.94
2024-03-26T06:42:20.661Z,949.77
2024-03-26T06:43:20.663Z,949.82
2024-03-26T06:44:20.634Z,949.75
2024-03-26T06:45:20.603Z,949.67
2024-03-26T06:46:23.933Z,949.70
2024-03-26T06:47:21.578Z,949.70
2024-03-26T06:48:20.564Z,949.73
2024-03-26T06:49:20.560Z,949.71
2024-03-26T06:50:20.537Z,949.61
2024-03-26T06:51:20.542Z,949.68
2024-03-26T06:52:20.519Z,949.73
2024-03-26T06:53:20.479Z,949.61
2024-03-26T06:54:20.459Z,949.75
2024-03-26T06:55:20.434Z,949.78
2024-03-26T06:56:20.436Z,949.73
2024-03-26T06:57:20.450Z,949.73
2024-03-26T06:58:20.399Z,949.92
2024-03-26T06:59:20.399Z,949.77
2024-03-26T07:00:20.376Z,949.85
2024-03-26T07:01:20.357Z,949.76
2024-03-26T07:02:20.654Z,949.87
2024-03-26T07:03:20.326Z,949.77
2024-03-26T07:04:20.338Z,949.86
2024-03-26T07:05:20.320Z,949.76
2024-03-26T07:06:20.287Z,949.87
2024-03-26T07:07:20.268Z,949.70
2024-03-26T07:08:20.262Z,949.79
2024-03-26T07:09:20.223Z,949.84
2024-03-26T07:10:20.204Z,949.72
2024-03-26T07:11:20.176Z,949.78
2024-03-26T07:12:20.196Z,949.78
2024-03-26T07:13:20.167Z,949.69
2024-03-26T07:14:20.152Z,949.67
2024-03-26T07:15:20.127Z,949.61
2024-03-26T07:16:20.103Z,949.55
2024-03-26T07:17:20.081Z,949.46
2024-03-26T07:18:20.098Z,949.53
2024-03-26T07:19:20.043Z,949.50
2024-03-26T07:20:20.030Z,949.66
2024-03-26T07:21:20.006Z,949.55
2024-03-26T07:22:19.987Z,949.58
2024-03-26T07:23:20.007Z,949.55
2024-03-26T07:24:20.000Z,949.50
2024-03-26T07:25:19.992Z,949.57
2024-03-26T07:26:19.920Z,949.61
2024-03-26T07:27:19.921Z,949.65
2024-03-26T07:28:20.192Z,949.74
2024-03-26T07:29:19.889Z,949.65
2024-03-26T07:30:19.861Z,949.58
2024-03-26T07:31:19.852Z,949.55
2024-03-26T07:32:19.828Z,949.69
2024-03-26T07:33:20.049Z,949.66
2024-03-26T07:34:19.834Z,949.65
2024-03-26T07:35:19.792Z,949.59
2024-03-26T07:36:19.877Z,949.65
2024-03-26T07:37:19.782Z,949.57
2024-03-26T07:38:19.742Z,949.53
2024-03-26T07:39:19.757Z,949.57
2024-03-26T07:40:19.708Z,949.53
2024-03-26T07:41:19.711Z,949.46
2024-03-26T07:42:19.720Z,949.57
2024-03-26T07:43:23.883Z,949.59
2024-03-26T07:44:20.741Z,949.62
2024-03-26T07:45:19.642Z,949.68
2024-03-26T07:46:19.623Z,949.54
2024-03-26T07:47:19.686Z,949.54
2024-03-26T07:48:21.645Z,949.38
2024-03-26T07:49:19.577Z,949.50
2024-03-26T07:50:19.665Z,949.44
2024-03-26T07:51:20.377Z,949.58
2024-03-26T07:52:20.564Z,949.45
2024-03-26T07:53:19.517Z,949.43
2024-03-26T07:54:19.507Z,949.45
2024-03-26T07:55:19.482Z,949.50
2024-03-26T07:56:19.452Z,949.44
2024-03-26T07:57:19.444Z,949.44
2024-03-26T07:58:19.438Z,949.47
2024-03-26T07:59:19.472Z,949.35
2024-03-26T08:00:19.576Z,949.46
2024-03-26T08:01:19.457Z,949.35
2024-03-26T08:02:19.473Z,949.36
2024-03-26T08:03:19.358Z,949.36
2024-03-26T08:04:19.339Z,949.48
2024-03-26T08:05:19.326Z,949.50
2024-03-26T08:06:19.354Z,949.60
2024-03-26T08:07:19.318Z,949.58
2024-03-26T08:08:19.273Z,949.52
2024-03-26T08:09:19.314Z,949.56
2024-03-26T08:10:19.303Z,949.53
2024-03-26T08:11:19.230Z,949.41
2024-03-26T08:12:19.194Z,949.52
2024-03-26T08:13:19.194Z,949.44
2024-03-26T08:14:19.174Z,949.41
2024-03-26T08:15:19.203Z,949.43
2024-03-26T08:16:19.117Z,949.45
2024-03-26T08:17:19.204Z,949.45
2024-03-26T08:18:19.136Z,949.40
2024-03-26T08:19:19.134Z,949.43
2024-03-26T08:20:19.089Z,949.36
2024-03-26T08:21:19.035Z,949.41
2024-03-26T08:22:19.133Z,949.44
2024-03-26T08:23:20.005Z,949.40
2024-03-26T08:24:18.988Z,949.35
2024-03-26T08:25:19.044Z,949.40
2024-03-26T08:26:18.967Z,949.33
2024-03-26T08:27:18.947Z,949.34
2024-03-26T08:28:19.015Z,949.32
2024-03-26T08:29:18.899Z,949.39
2024-03-26T08:30:18.914Z,949.36
2024-03-26T08:31:18.891Z,949.32
2024-03-26T08:32:18.963Z,949.31
2024-03-26T08:33:18.914Z,949.31
2024-03-26T08:34:18.847Z,949.23
2024-03-26T08:35:20.535Z,949.25
2024-03-26T08:36:19.867Z,949.23
2024-03-26T08:37:18.792Z,949.24
2024-03-26T08:38:18.750Z,949.21
2024-03-26T08:39:18.755Z,949.19
2024-03-26T08:40:18.991Z,949.11
2024-03-26T08:41:18.773Z,949.10
2024-03-26T08:42:18.701Z,949.17
2024-03-26T08:43:18.677Z,949.10
2024-03-26T08:44:18.671Z,949.08
2024-03-26T08:45:18.666Z,949.17
2024-03-26T08:46:18.640Z,949.10
2024-03-26T08:47:18.648Z,949.10
2024-03-26T08:48:18.599Z,949.04
2024-03-26T08:49:18.564Z,949.12
2024-03-26T08:50:18.559Z,949.10
2024-03-26T08:51:18.589Z,949.08
2024-03-26T08:52:18.518Z,949.08
2024-03-26T08:53:18.527Z,949.04
2024-03-26T08:54:18.522Z,949.10
2024-03-26T08:55:18.502Z,949.11
2024-03-26T08:56:25.054Z,949.06
2024-03-26T08:57:20.590Z,949.07
2024-03-26T08:58:22.597Z,949.09
2024-03-26T08:59:20.415Z,949.09
2024-03-26T09:00:18.390Z,949.07
2024-03-26T09:01:18.404Z,949.06
2024-03-26T09:02:18.377Z,948.99
2024-03-26T09:03:18.334Z,948.95
2024-03-26T09:04:18.463Z,949.01
2024-03-26T09:05:18.313Z,949.01
2024-03-26T09:06:18.318Z,949.03
2024-03-26T09:07:18.310Z,948.93
2024-03-26T09:08:18.266Z,948.98
2024-03-26T09:09:18.236Z,948.99
2024-03-26T09:10:18.227Z,948.98
2024-03-26T09:11:18.404Z,949.02
2024-03-26T09:12:18.220Z,948.97
2024-03-26T09:13:18.203Z,948.97
2024-03-26T09:14:18.206Z,948.95
2024-03-26T09:15:18.142Z,948.89
2024-03-26T09:16:18.146Z,948.79
2024-03-26T09:17:18.160Z,948.83
2024-03-26T09:18:18.101Z,948.84
2024-03-26T09:19:18.172Z,948.80
2024-03-26T09:20:18.083Z,948.83
2024-03-26T09:21:18.125Z,948.83
2024-03-26T09:22:18.038Z,948.78
2024-03-26T09:23:18.072Z,948.81
2024-03-26T09:24:18.004Z,948.92
2024-03-26T09:25:18.004Z,948.95
2024-03-26T09:26:17.955Z,948.97
2024-03-26T09:27:18.952Z,948.87
2024-03-26T09:28:17.940Z,948.85
2024-03-26T09:29:17.929Z,948.84
2024-03-26T09:30:17.914Z,948.85
2024-03-26T09:31:17.893Z,948.78
2024-03-26T09:32:17.889Z,948.77
2024-03-26T09:33:18.191Z,948.75
2024-03-26T09:34:17.869Z,948.75
2024-03-26T09:35:17.818Z,948.77
2024-03-26T09:36:17.794Z,948.70
2024-03-26T09:37:17.773Z,948.79
2024-03-26T09:38:18.691Z,948.70
2024-03-26T09:39:17.742Z,948.75
2024-03-26T09:40:17.738Z,948.76
2024-03-26T09:41:17.727Z,948.71
2024-03-26T09:42:17.695Z,948.84
2024-03-26T09:43:19.880Z,948.71
2024-03-26T09:44:19.143Z,948.75
2024-03-26T09:45:17.688Z,948.74
2024-03-26T09:46:17.629Z,948.77
2024-03-26T09:47:17.613Z,948.77
2024-03-26T09:48:17.649Z,948.69
2024-03-26T09:49:17.601Z,948.68
2024-03-26T09:50:17.596Z,948.67
2024-03-26T09:51:17.562Z,948.66
2024-03-26T09:52:17.537Z,948.69
2024-03-26T09:53:17.530Z,948.65
2024-03-26T09:54:17.511Z,948.65
2024-03-26T09:55:17.668Z,948.70
2024-03-26T09:56:17.446Z,948.69
2024-03-26T09:57:18.448Z,948.67
2024-03-26T09:58:17.412Z,948.65
2024-03-26T09:59:17.443Z,948.57
2024-03-26T10:00:17.534Z,948.65
2024-03-26T10:01:17.375Z,948.66
2024-03-26T10:02:17.359Z,948.60
2024-03-26T10:03:17.353Z,948.55
2024-03-26T10:04:17.383Z,948.64
2024-03-26T10:05:17.581Z,948.64
2024-03-26T10:06:17.299Z,948.68
2024-03-26T10:07:17.272Z,948.61
2024-03-26T10:08:17.247Z,948.64
2024-03-26T10:09:17.239Z,948.62
2024-03-26T10:10:17.310Z,948.61
2024-03-26T10:11:17.218Z,948.64
2024-03-26T10:12:17.306Z,948.58
2024-03-26T10:13:17.175Z,948.64
2024-03-26T10:14:17.206Z,948.74
2024-03-26T10:15:17.161Z,948.59
2024-03-26T10:16:17.181Z,948.60
2024-03-26T10:17:17.102Z,948.61
2024-03-26T10:18:17.103Z,948.66
2024-03-26T10:19:17.078Z,948.59
2024-03-26T10:20:17.073Z,948.56
2024-03-26T10:21:17.063Z,948.50
2024-03-26T10:22:17.080Z,948.48
2024-03-26T10:23:17.011Z,948.47
2024-03-26T10:24:16.988Z,948.50
2024-03-26T10:25:17.015Z,948.48
2024-03-26T10:26:17.059Z,948.56
2024-03-26T10:27:16.983Z,948.46
2024-03-26T10:28:16.991Z,948.59
2024-03-26T10:29:16.895Z,948.53
2024-03-26T10:30:16.896Z,948.50
2024-03-26T10:31:16.867Z,948.51
2024-03-26T10:32:16.944Z,948.40
2024-03-26T10:33:16.842Z,948.47
2024-03-26T10:34:16.843Z,948.39
2024-03-26T10:35:16.826Z,948.34
2024-03-26T10:36:16.850Z,948.27
2024-03-26T10:37:16.849Z,948.26
2024-03-26T10:38:17.435Z,948.25
2024-03-26T10:39:16.742Z,948.25
2024-03-26T10:40:16.718Z,948.13
2024-03-26T10:41:16.719Z,948.15
2024-03-26T10:42:16.735Z,948.18
2024-03-26T10:43:16.673Z,948.16
2024-03-26T10:44:16.648Z,948.18
2024-03-26T10:45:27.598Z,948.17
2024-03-26T10:46:18.617Z,948.21
2024-03-26T10:47:16.644Z,948.17
2024-03-26T10:48:16.600Z,948.17
2024-03-26T10:49:16.588Z,948.21
2024-03-26T10:50:16.591Z,948.08
2024-03-26T10:51:16.522Z,948.11
2024-03-26T10:52:16.522Z,948.13
2024-03-26T10:53:19.027Z,948.07
2024-03-26T10:54:16.489Z,948.13
2024-03-26T10:55:16.463Z,948.06
2024-03-26T10:56:16.451Z,948.02
2024-03-26T10:57:16.438Z,948.05
2024-03-26T10:58:16.431Z,948.06
2024-03-26T10:59:16.426Z,948.01
2024-03-26T11:00:16.407Z,947.98
2024-03-26T11:01:16.390Z,947.95
2024-03-26T11:02:16.363Z,947.96
2024-03-26T11:03:16.353Z,947.91
2024-03-26T11:04:16.344Z,947.96
2024-03-26T11:05:16.305Z,948.01
2024-03-26T11:06:16.317Z,947.94
2024-03-26T11:07:16.280Z,947.83
2024-03-26T11:08:16.324Z,947.94
2024-03-26T11:09:16.886Z,947.90
2024-03-26T11:10:16.216Z,947.84
2024-03-26T11:11:16.240Z,947.90
2024-03-26T11:12:16.186Z,947.90
2024-03-26T11:13:16.170Z,947.80
2024-03-26T11:14:16.170Z,947.81
2024-03-26T11:15:16.155Z,947.85
2024-03-26T11:16:16.133Z,947.86
2024-03-26T11:17:16.122Z,947.97
2024-03-26T11:18:16.097Z,947.86
2024-03-26T11:19:16.178Z,947.83
2024-03-26T11:20:16.067Z,947.78
2024-03-26T11:21:16.043Z,947.81
2024-03-26T11:22:16.047Z,947.77
2024-03-26T11:23:16.008Z,947.76
2024-03-26T11:24:16.084Z,947.73
2024-03-26T11:25:15.970Z,947.77
2024-03-26T11:26:15.960Z,947.69
2024-03-26T11:27:15.934Z,947.71
2024-03-26T11:28:15.936Z,947.74
2024-03-26T11:29:15.938Z,947.77
2024-03-26T11:30:15.922Z,947.82
2024-03-26T11:31:15.866Z,947.78
2024-03-26T11:32:18.896Z,947.86
2024-03-26T11:33:16.877Z,947.87
2024-03-26T11:34:15.897Z,947.80
2024-03-26T11:35:15.872Z,947.86
2024-03-26T11:36:15.794Z,947.81
2024-03-26T11:37:15.806Z,947.82
2024-03-26T11:38:15.759Z,947.79
2024-03-26T11:39:15.745Z,947.80
2024-03-26T11:40:15.786Z,947.87
2024-03-26T11:41:15.728Z,947.80
2024-03-26T11:42:15.748Z,947.77
2024-03-26T11:43:15.679Z,947.77
2024-03-26T11:44:15.664Z,947.91
2024-03-26T11:45:15.673Z,947.86
2024-03-26T11:46:47.598Z,947.82
2024-03-26T11:47:15.689Z,947.79
2024-03-26T11:48:15.614Z,947.81
2024-03-26T11:49:15.578Z,947.77
2024-03-26T11:50:15.608Z,947.77
2024-03-26T11:51:15.632Z,947.79
2024-03-26T11:52:15.584Z,947.79
2024-03-26T11:53:15.533Z,947.71
2024-03-26T11:54:15.574Z,947.72
2024-03-26T11:55:15.500Z,947.84
2024-03-26T11:56:15.517Z,947.73
2024-03-26T11:57:15.438Z,947.74
2024-03-26T11:58:15.579Z,947.72
2024-03-26T11:59:15.452Z,947.69
2024-03-26T12:00:15.446Z,947.66
2024-03-26T12:01:15.410Z,947.66
2024-03-26T12:02:15.406Z,947.62
2024-03-26T12:03:15.377Z,947.57
2024-03-26T12:04:15.384Z,947.54
2024-03-26T12:05:15.377Z,947.51
2024-03-26T12:06:15.285Z,947.52
2024-03-26T12:07:15.315Z,947.51
2024-03-26T12:08:15.462Z,947.42
2024-03-26T12:09:15.332Z,947.44
2024-03-26T12:10:15.230Z,947.45
2024-03-26T12:11:15.318Z,947.33
2024-03-26T12:12:15.295Z,947.28
2024-03-26T12:13:15.225Z,947.36
2024-03-26T12:14:16.279Z,947.37
2024-03-26T12:15:15.155Z,947.43
2024-03-26T12:16:17.552Z,947.38
2024-03-26T12:17:15.287Z,947.42
2024-03-26T12:18:15.202Z,947.45
2024-03-26T12:19:15.105Z,947.42
2024-03-26T12:20:15.104Z,947.43
2024-03-26T12:21:15.104Z,947.40
2024-03-26T12:22:15.060Z,947.43
2024-03-26T12:23:15.073Z,947.46
2024-03-26T12:24:15.046Z,947.40
2024-03-26T12:25:15.010Z,947.36
2024-03-26T12:26:15.031Z,947.35
2024-03-26T12:27:15.101Z,947.31
2024-03-26T12:28:15.024Z,947.31